Time;durP1;ratioP1;P1;durP2;ratioP2;P2;SDS_P1;SDS_P2;PMS_P1;PMS_P2;Temp;Humidity;BMP_temperature;BMP_pressure;BME280_temperature;BME280_humidity;BME280_pressure;Samples;Min_cycle;Max_cycle;Signal;HPM_P1;HPM_P2
2022/08/09 00:00:23;;;;;;;3.65;3.40;;;16.70;99.90;;;;;;5005665;28;20046;-71
2022/08/09 00:02:54;;;;;;;4.10;3.70;;;16.60;99.90;;;;;;5015074;28;20041;-71
2022/08/09 00:05:26;;;;;;;3.50;3.20;;;16.60;99.90;;;;;;5011884;28;20054;-71
2022/08/09 00:07:58;;;;;;;4.20;3.80;;;16.60;99.90;;;;;;5015053;28;20056;-71
2022/08/09 00:10:30;;;;;;;3.92;3.60;;;16.60;99.90;;;;;;5004998;28;20052;-71
2022/08/09 00:13:02;;;;;;;5.35;3.88;;;16.50;99.90;;;;;;5022958;28;20041;-71
2022/08/09 00:15:33;;;;;;;5.60;3.53;;;16.50;99.90;;;;;;5000656;28;20048;-71
2022/08/09 00:18:00;;;;;;;3.78;3.38;;;16.50;99.90;;;;;;5020406;28;20042;-71
2022/08/09 00:20:32;;;;;;;5.22;4.28;;;16.50;99.90;;;;;;5011789;28;20039;-71
2022/08/09 00:23:04;;;;;;;4.00;3.70;;;16.40;99.90;;;;;;5017976;28;20428;-71
2022/08/09 00:25:35;;;;;;;3.85;3.53;;;16.40;99.90;;;;;;5026903;28;20059;-71
2022/08/09 00:28:07;;;;;;;3.97;3.67;;;16.30;99.90;;;;;;5026875;28;20042;-71
2022/08/09 00:30:39;;;;;;;4.20;3.90;;;16.30;99.90;;;;;;5006367;28;20042;-71
2022/08/09 00:33:11;;;;;;;3.40;3.10;;;16.30;99.90;;;;;;5018854;28;20046;-71
2022/08/09 00:35:43;;;;;;;4.07;3.78;;;16.30;99.90;;;;;;5006007;28;20052;-71
2022/08/09 00:38:15;;;;;;;4.07;3.78;;;16.20;99.90;;;;;;5019491;28;20069;-71
2022/08/09 00:40:44;;;;;;;3.92;3.53;;;16.20;99.90;;;;;;5017874;28;20037;-71
2022/08/09 00:43:16;;;;;;;4.60;3.45;;;16.10;99.90;;;;;;5015227;28;20072;-71
2022/08/09 00:45:48;;;;;;;4.40;3.55;;;16.10;99.90;;;;;;5012000;28;20038;-71
2022/08/09 00:48:19;;;;;;;3.47;3.17;;;16.00;99.90;;;;;;5014881;28;20080;-72
2022/08/09 00:50:51;;;;;;;4.68;4.00;;;15.90;99.90;;;;;;5010923;28;20049;-71
2022/08/09 00:53:18;;;;;;;4.38;4.00;;;15.90;99.90;;;;;;5020863;28;20041;-71
2022/08/09 00:55:50;;;;;;;4.63;3.97;;;15.80;99.90;;;;;;5006614;28;20051;-71
2022/08/09 00:58:22;;;;;;;5.47;3.88;;;15.80;99.90;;;;;;5022993;28;20067;-71
2022/08/09 01:00:55;;;;;;;4.95;3.60;;;15.80;99.90;;;;;;5010546;28;20079;-71
2022/08/09 01:03:46;;;;;;;5.22;3.78;;;15.70;99.90;;;;;;5013157;28;20068;-71
2022/08/09 01:06:29;;;;;;;4.53;4.13;;;15.60;99.90;;;;;;5009204;28;20399;-71
2022/08/09 01:09:05;;;;;;;4.35;3.90;;;15.70;99.90;;;;;;5021015;28;20064;-71
2022/08/09 01:11:59;;;;;;;4.50;3.90;;;15.70;99.90;;;;;;5010015;28;20034;-71
2022/08/09 01:14:39;;;;;;;;;;;15.70;99.90;;;;;;5019875;28;20049;-71
2022/08/09 01:17:18;;;;;;;4.38;3.97;;;15.70;99.90;;;;;;5019812;28;19921;-71
2022/08/09 01:20:09;;;;;;;3.78;3.47;;;15.70;99.90;;;;;;5016591;28;20060;-71
2022/08/09 01:23:02;;;;;;;4.07;3.78;;;15.60;99.90;;;;;;5016460;28;20046;-71
2022/08/09 01:25:52;;;;;;;4.38;3.97;;;15.60;99.90;;;;;;5007323;28;20038;-71
2022/08/09 01:28:24;;;;;;;4.05;3.70;;;15.50;99.90;;;;;;5011880;28;20069;-71
2022/08/09 01:30:59;;;;;;;4.20;3.80;;;15.50;99.90;;;;;;5013552;28;20400;-71
2022/08/09 01:33:37;;;;;;;6.20;4.03;;;15.50;99.90;;;;;;5001649;28;20050;-71
2022/08/09 01:36:13;;;;;;;4.10;3.80;;;15.40;99.90;;;;;;5020689;28;20045;-71
2022/08/09 01:38:48;;;;;;;4.07;3.78;;;15.50;99.90;;;;;;5019796;28;20045;-71
2022/08/09 01:41:19;;;;;;;4.32;4.03;;;15.50;99.90;;;;;;4983810;28;20042;-71
2022/08/09 01:43:54;;;;;;;4.40;4.00;;;15.50;99.90;;;;;;5013718;28;20041;-71
2022/08/09 01:46:29;;;;;;;4.95;4.53;;;15.40;99.90;;;;;;5029819;28;20087;-71
2022/08/09 01:49:08;;;;;;;5.18;3.97;;;15.30;99.90;;;;;;5019744;28;20502;-71
2022/08/09 01:51:44;;;;;;;4.47;4.07;;;15.30;99.90;;;;;;5019015;28;20047;-71
2022/08/09 01:54:18;;;;;;;4.28;3.97;;;15.30;99.90;;;;;;5033419;28;20057;-71
2022/08/09 01:56:52;;;;;;;4.72;3.90;;;15.20;99.90;;;;;;5027602;28;20426;-71
2022/08/09 01:59:25;;;;;;;5.35;4.35;;;15.20;99.90;;;;;;4998807;28;20142;-71
2022/08/09 02:01:58;;;;;;;4.47;4.07;;;15.20;99.90;;;;;;5001187;28;20153;-71
2022/08/09 02:04:31;;;;;;;4.53;4.22;;;15.10;99.90;;;;;;5000387;28;20069;-71
2022/08/09 02:07:11;;;;;;;5.93;4.45;;;15.10;99.90;;;;;;5028275;28;20056;-71
2022/08/09 02:09:57;;;;;;;4.53;4.13;;;15.00;99.90;;;;;;5004871;28;20046;-71
2022/08/09 02:12:32;;;;;;;4.97;4.53;;;14.90;99.90;;;;;;5013907;28;20053;-71
2022/08/09 02:15:06;;;;;;;4.82;4.40;;;14.90;99.90;;;;;;5025251;28;20042;-71
2022/08/09 02:17:40;;;;;;;5.28;4.88;;;14.90;99.90;;;;;;5013076;28;20057;-71
2022/08/09 02:20:12;;;;;;;5.00;4.60;;;14.90;99.90;;;;;;5014517;28;20120;-71
2022/08/09 02:23:00;;;;;;;5.15;4.20;;;14.90;99.90;;;;;;5029629;28;20546;-71
2022/08/09 02:25:36;;;;;;;4.80;4.40;;;15.00;99.90;;;;;;5007421;28;20041;-71
2022/08/09 02:28:15;;;;;;;4.82;4.43;;;15.00;99.90;;;;;;5014245;28;20053;-71
2022/08/09 02:30:52;;;;;;;4.80;4.40;;;15.00;99.90;;;;;;4994327;28;20563;-71
2022/08/09 02:33:29;;;;;;;5.45;4.95;;;14.90;99.90;;;;;;5016025;28;20068;-71
2022/08/09 02:35:59;;;;;;;5.68;4.95;;;14.80;99.90;;;;;;5017477;28;20038;-71
2022/08/09 02:38:53;;;;;;;5.30;4.60;;;14.80;99.90;;;;;;5015532;28;20056;-71
2022/08/09 02:41:36;;;;;;;5.30;4.80;;;14.80;99.90;;;;;;5018216;28;20409;-71
2022/08/09 02:44:15;;;;;;;5.60;5.20;;;14.80;99.90;;;;;;5013669;28;20038;-71
2022/08/09 02:46:50;;;;;;;4.57;4.25;;;14.70;99.90;;;;;;5029173;28;20046;-71
2022/08/09 02:49:18;;;;;;;5.05;4.55;;;14.70;99.90;;;;;;5017791;28;20788;-71
2022/08/09 02:51:55;;;;;;;6.13;5.10;;;14.60;99.90;;;;;;5010827;28;20048;-71
2022/08/09 02:54:28;;;;;;;5.28;4.88;;;14.60;99.90;;;;;;5018960;28;20045;-71
2022/08/09 02:57:02;;;;;;;5.82;5.32;;;14.60;99.90;;;;;;5021490;28;20041;-71
2022/08/09 02:59:35;;;;;;;5.20;4.80;;;14.60;99.90;;;;;;5017225;28;20042;-71
2022/08/09 03:02:12;;;;;;;5.63;5.10;;;14.60;99.90;;;;;;5032184;28;20440;-71
2022/08/09 03:04:45;;;;;;;5.93;5.43;;;14.60;99.90;;;;;;5033826;28;20038;-71
2022/08/09 03:07:17;;;;;;;6.10;5.27;;;14.60;99.90;;;;;;5031080;28;20213;-71
2022/08/09 03:09:52;;;;;;;6.40;5.68;;;14.60;99.90;;;;;;5016242;28;20496;-71
2022/08/09 03:12:25;;;;;;;6.32;5.82;;;14.60;99.90;;;;;;5015875;28;20042;-71
2022/08/09 03:14:56;;;;;;;6.38;5.88;;;14.60;99.90;;;;;;5020535;28;20060;-71
2022/08/09 03:17:30;;;;;;;6.07;5.50;;;14.60;99.90;;;;;;5035123;28;20045;-71
2022/08/09 03:20:04;;;;;;;6.00;5.50;;;14.60;99.90;;;;;;5020231;28;20054;-71
2022/08/09 03:22:43;;;;;;;6.10;5.60;;;14.50;99.90;;;;;;5018600;28;20056;-71
2022/08/09 03:25:15;;;;;;;6.78;6.15;;;14.50;99.90;;;;;;5021893;28;20050;-71
2022/08/09 03:27:50;;;;;;;6.35;5.75;;;14.40;99.90;;;;;;5014333;28;20543;-71
2022/08/09 03:30:22;;;;;;;7.82;6.22;;;14.40;99.90;;;;;;5019762;28;20044;-71
2022/08/09 03:32:56;;;;;;;6.65;6.07;;;14.40;99.90;;;;;;5021612;28;20047;-71
2022/08/09 03:35:24;;;;;;;7.43;6.72;;;14.30;99.90;;;;;;5006712;28;20049;-71
2022/08/09 03:37:56;;;;;;;6.90;6.32;;;14.30;99.90;;;;;;5021381;28;20676;-71
2022/08/09 03:40:28;;;;;;;6.47;5.90;;;14.30;99.90;;;;;;5015492;28;20030;-71
2022/08/09 03:42:55;;;;;;;5.63;5.18;;;14.30;99.90;;;;;;5018520;28;20038;-71
2022/08/09 03:45:27;;;;;;;6.72;6.00;;;14.30;99.90;;;;;;5026336;28;20048;-71
2022/08/09 03:47:58;;;;;;;6.57;5.90;;;14.20;99.90;;;;;;5029553;28;20046;-71
2022/08/09 03:50:32;;;;;;;6.47;5.97;;;14.20;99.90;;;;;;5011932;28;20038;-71
2022/08/09 03:53:05;;;;;;;;;;;14.10;99.90;;;;;;5021298;28;20504;-71
2022/08/09 03:55:37;;;;;;;11.45;7.40;;;14.10;99.90;;;;;;5019700;28;20021;-71
2022/08/09 03:58:09;;;;;;;7.00;5.10;;;14.10;99.90;;;;;;5021535;28;20396;-71
2022/08/09 04:00:43;;;;;;;5.65;5.15;;;14.10;99.90;;;;;;5014253;28;20044;-72
2022/08/09 04:03:15;;;;;;;;;;;14.10;99.90;;;;;;5016178;28;20050;-73
2022/08/09 04:05:47;;;;;;;5.68;5.10;;;14.10;99.90;;;;;;5035057;28;20414;-72
2022/08/09 04:08:18;;;;;;;7.32;5.03;;;14.10;99.90;;;;;;5021149;28;20037;-72
2022/08/09 04:10:50;;;;;;;6.22;5.05;;;14.20;99.90;;;;;;5020197;28;20045;-72
2022/08/09 04:13:22;;;;;;;6.05;5.43;;;14.10;99.90;;;;;;5020675;28;20083;-71
2022/08/09 04:15:53;;;;;;;6.30;5.70;;;14.10;99.90;;;;;;5020705;28;20060;-71
2022/08/09 04:18:20;;;;;;;7.25;5.93;;;14.10;99.90;;;;;;5021400;28;20399;-71
2022/08/09 04:20:52;;;;;;;5.60;5.10;;;14.10;99.90;;;;;;5014330;28;20516;-72
2022/08/09 04:23:24;;;;;;;6.68;4.85;;;14.10;99.90;;;;;;5017611;28;20042;-72
2022/08/09 04:25:56;;;;;;;6.28;5.55;;;14.10;99.90;;;;;;5012625;28;20069;-72
2022/08/09 04:28:28;;;;;;;6.60;6.00;;;14.10;99.90;;;;;;5020071;28;20113;-72
2022/08/09 04:30:54;;;;;;;8.90;6.93;;;14.20;99.90;;;;;;5019026;28;20042;-72
2022/08/09 04:33:26;;;;;;;7.30;6.63;;;14.20;99.90;;;;;;5018251;28;20041;-73
2022/08/09 04:35:58;;;;;;;13.75;10.35;;;14.20;99.90;;;;;;5020854;28;20038;-72
2022/08/09 04:38:29;;;;;;;13.85;12.10;;;14.20;99.90;;;;;;5020546;28;20051;-72
2022/08/09 04:41:01;;;;;;;11.07;9.23;;;14.20;99.90;;;;;;5012459;28;20080;-72
2022/08/09 04:43:33;;;;;;;11.68;8.10;;;14.20;99.90;;;;;;5020475;28;20038;-72
2022/08/09 04:46:06;;;;;;;7.90;7.10;;;14.20;99.90;;;;;;5004033;28;20097;-73
2022/08/09 04:48:37;;;;;;;7.93;7.13;;;14.30;99.90;;;;;;5013643;28;20081;-73
2022/08/09 04:51:10;;;;;;;8.38;7.57;;;14.20;99.90;;;;;;5004912;28;20045;-72
2022/08/09 04:53:42;;;;;;;8.70;7.33;;;14.20;99.90;;;;;;5021726;28;20069;-72
2022/08/09 04:56:13;;;;;;;7.78;7.18;;;14.20;99.90;;;;;;5018670;28;20038;-72
2022/08/09 04:58:45;;;;;;;8.25;7.45;;;14.20;99.90;;;;;;5020295;28;20495;-72
2022/08/09 05:01:17;;;;;;;8.48;7.70;;;14.20;99.90;;;;;;5013005;28;20069;-72
2022/08/09 05:03:49;;;;;;;9.40;8.50;;;14.20;99.90;;;;;;5002821;28;20038;-72
2022/08/09 05:06:21;;;;;;;9.32;8.10;;;14.30;99.90;;;;;;5010854;28;20057;-72
2022/08/09 05:08:52;;;;;;;8.70;7.90;;;14.30;99.90;;;;;;4995337;28;20049;-72
2022/08/09 05:11:26;;;;;;;9.82;8.88;;;14.30;99.90;;;;;;5013702;28;20041;-72
2022/08/09 05:13:58;;;;;;;10.32;8.32;;;14.30;99.90;;;;;;5004090;28;20049;-72
2022/08/09 05:16:30;;;;;;;9.35;8.55;;;14.40;99.90;;;;;;5026098;28;20111;-72
2022/08/09 05:19:02;;;;;;;10.63;8.68;;;14.40;99.90;;;;;;5017536;28;20534;-72
2022/08/09 05:21:34;;;;;;;8.73;7.85;;;14.50;99.90;;;;;;5012029;28;20452;-72
2022/08/09 05:24:06;;;;;;;9.27;8.57;;;14.50;99.90;;;;;;5031717;22;20416;-72
2022/08/09 05:26:38;;;;;;;9.02;8.23;;;14.60;99.90;;;;;;5001758;28;20049;-72
2022/08/09 05:29:10;;;;;;;9.02;8.23;;;14.60;99.90;;;;;;5010184;28;20041;-72
2022/08/09 05:31:42;;;;;;;9.23;8.43;;;14.60;99.90;;;;;;5007968;28;20045;-72
2022/08/09 05:34:14;;;;;;;9.40;8.55;;;14.60;99.90;;;;;;5005519;28;20463;-72
2022/08/09 05:36:46;;;;;;;9.23;8.43;;;14.70;99.90;;;;;;5002053;28;20042;-72
2022/08/09 05:39:18;;;;;;;9.13;8.32;;;14.70;99.90;;;;;;5000176;28;20278;-72
2022/08/09 05:41:50;;;;;;;9.38;8.57;;;14.70;99.90;;;;;;5002094;28;20504;-72
2022/08/09 05:44:21;;;;;;;9.60;8.80;;;14.70;99.90;;;;;;5003351;28;20134;-72
2022/08/09 05:46:53;;;;;;;10.05;9.13;;;14.80;99.90;;;;;;5003099;28;20043;-72
2022/08/09 05:49:25;;;;;;;9.48;7.90;;;14.80;99.90;;;;;;5000316;28;20760;-73
2022/08/09 05:51:57;;;;;;;9.68;8.63;;;15.00;99.90;;;;;;5006894;28;20074;-72
2022/08/09 05:54:28;;;;;;;8.20;7.50;;;15.20;99.90;;;;;;4997054;28;20052;-72
2022/08/09 05:57:00;;;;;;;8.93;8.13;;;15.20;99.90;;;;;;5007544;28;20037;-72
2022/08/09 05:59:32;;;;;;;9.13;8.15;;;15.20;99.90;;;;;;5003878;28;20042;-72
2022/08/09 06:02:04;;;;;;;9.80;8.38;;;15.30;99.90;;;;;;5001584;28;20543;-72
2022/08/09 06:04:36;;;;;;;10.85;9.85;;;15.30;99.90;;;;;;4996613;28;20114;-72
2022/08/09 06:07:08;;;;;;;11.30;10.30;;;15.40;99.90;;;;;;5005220;28;20052;-72
2022/08/09 06:09:40;;;;;;;13.05;11.82;;;15.40;99.90;;;;;;5005007;28;20046;-72
2022/08/09 06:12:12;;;;;;;12.50;11.32;;;15.50;99.90;;;;;;5004584;28;20080;-72
2022/08/09 06:14:43;;;;;;;11.38;10.27;;;15.60;99.90;;;;;;4999796;28;20046;-73
2022/08/09 06:17:15;;;;;;;10.75;9.75;;;15.70;99.90;;;;;;5002955;28;20043;-72
2022/08/09 06:19:47;;;;;;;9.90;9.00;;;15.80;99.90;;;;;;5003867;28;20041;-72
2022/08/09 06:22:19;;;;;;;11.95;10.48;;;15.80;99.90;;;;;;5005129;28;20534;-72
2022/08/09 06:24:51;;;;;;;10.15;9.23;;;15.90;99.90;;;;;;5018423;28;20636;-72
2022/08/09 06:27:22;;;;;;;9.52;8.63;;;16.00;99.90;;;;;;4998393;28;20125;-72
2022/08/09 06:29:54;;;;;;;9.60;8.70;;;16.10;99.90;;;;;;4994761;28;20136;-72
2022/08/09 06:32:26;;;;;;;9.35;8.55;;;16.10;99.90;;;;;;5001224;28;20038;-72
2022/08/09 06:34:57;;;;;;;10.30;8.55;;;16.20;99.90;;;;;;5003324;28;20153;-72
2022/08/09 06:37:29;;;;;;;8.80;7.80;;;16.30;99.90;;;;;;5006361;28;20050;-72
2022/08/09 06:40:03;;;;;;;10.15;7.70;;;16.50;99.90;;;;;;5009671;28;20038;-73
2022/08/09 06:42:30;;;;;;;9.25;7.85;;;16.60;99.90;;;;;;5005449;28;20034;-73
2022/08/09 06:45:06;;;;;;;8.40;7.60;;;16.70;99.90;;;;;;5022852;28;20045;-72
2022/08/09 06:47:33;;;;;;;8.30;7.50;;;16.80;99.90;;;;;;5008793;28;20054;-72
2022/08/09 06:50:00;;;;;;;7.95;7.07;;;16.90;99.90;;;;;;5011077;28;20045;-72
2022/08/09 06:52:31;;;;;;;6.95;6.30;;;17.00;99.90;;;;;;5009645;28;20066;-73
2022/08/09 06:55:03;;;;;;;6.78;6.18;;;17.10;99.90;;;;;;5008321;28;20128;-73
2022/08/09 06:57:35;;;;;;;7.10;6.05;;;17.30;99.90;;;;;;5013198;28;20038;-72
2022/08/09 07:00:08;;;;;;;7.18;5.60;;;17.40;99.90;;;;;;5009685;28;20050;-72
2022/08/09 07:02:40;;;;;;;5.13;4.68;;;17.50;99.90;;;;;;5002030;28;20027;-72
2022/08/09 07:05:07;;;;;;;15.50;5.78;;;17.70;99.90;;;;;;5004067;28;20234;-72
2022/08/09 07:07:39;;;;;;;7.38;4.30;;;17.80;99.90;;;;;;5003067;28;20148;-72
2022/08/09 07:10:11;;;;;;;4.72;4.28;;;18.00;99.90;;;;;;5006278;28;20057;-72
2022/08/09 07:12:43;;;;;;;5.00;3.95;;;18.10;99.90;;;;;;5002665;28;20034;-73
2022/08/09 07:15:15;;;;;;;4.10;3.70;;;18.30;99.90;;;;;;5004103;28;20052;-72
2022/08/09 07:17:47;;;;;;;5.45;3.90;;;18.40;99.90;;;;;;5005965;28;20053;-73
2022/08/09 07:20:18;;;;;;;5.20;3.90;;;18.50;99.90;;;;;;5009958;28;20038;-72
2022/08/09 07:22:51;;;;;;;4.63;4.22;;;18.60;99.90;;;;;;5023233;28;20046;-72
2022/08/09 07:25:23;;;;;;;3.70;3.40;;;18.80;99.90;;;;;;4998891;28;20031;-72
2022/08/09 07:27:54;;;;;;;4.10;3.70;;;18.90;99.90;;;;;;5009042;28;20077;-72
2022/08/09 07:30:26;;;;;;;3.58;3.28;;;19.10;99.90;;;;;;5019807;28;20057;-72
2022/08/09 07:32:53;;;;;;;4.07;3.67;;;19.20;99.90;;;;;;5009108;28;20368;-72
2022/08/09 07:35:25;;;;;;;4.82;3.70;;;19.40;99.90;;;;;;5001680;28;20137;-72
2022/08/09 07:37:57;;;;;;;3.40;3.10;;;19.50;99.90;;;;;;5005174;28;20042;-72
2022/08/09 07:40:29;;;;;;;4.00;3.70;;;19.60;99.90;;;;;;5000666;28;20038;-72
2022/08/09 07:43:00;;;;;;;5.45;3.40;;;19.70;99.90;;;;;;5007402;28;20054;-72
2022/08/09 07:45:32;;;;;;;5.07;3.42;;;19.90;99.90;;;;;;4996591;28;20038;-72
2022/08/09 07:48:04;;;;;;;6.45;3.40;;;20.00;99.90;;;;;;5010823;28;20050;-72
2022/08/09 07:50:39;;;;;;;7.47;3.33;;;20.10;99.90;;;;;;4999484;28;20116;-72
2022/08/09 07:53:11;;;;;;;5.97;3.78;;;20.20;99.90;;;;;;5004489;28;20038;-72
2022/08/09 07:55:43;;;;;;;3.50;3.20;;;20.40;99.90;;;;;;5002506;28;20042;-73
2022/08/09 07:58:14;;;;;;;3.30;2.90;;;20.50;99.90;;;;;;5008106;28;20573;-72
2022/08/09 08:00:46;;;;;;;3.78;3.25;;;20.60;99.90;;;;;;4999948;28;20419;-72
2022/08/09 08:03:13;;;;;;;3.53;2.80;;;20.70;99.90;;;;;;4997328;28;20048;-73
2022/08/09 08:05:44;;;;;;;3.05;2.70;;;20.80;99.90;;;;;;4996887;28;20490;-73
2022/08/09 08:08:16;;;;;;;3.25;3.03;;;20.90;99.90;;;;;;5008493;28;20044;-72
2022/08/09 08:10:48;;;;;;;5.50;3.33;;;21.10;99.90;;;;;;5001303;28;20566;-73
2022/08/09 08:13:20;;;;;;;3.13;2.72;;;21.20;99.90;;;;;;5001505;28;20452;-71
2022/08/09 08:15:51;;;;;;;3.60;2.55;;;21.30;99.90;;;;;;5003632;28;20052;-71
2022/08/09 08:18:23;;;;;;;4.85;2.83;;;21.40;99.90;;;;;;5010184;28;20049;-71
2022/08/09 08:20:55;;;;;;;4.75;2.95;;;21.60;99.90;;;;;;5008300;28;20057;-70
2022/08/09 08:23:27;;;;;;;3.53;2.60;;;21.70;99.90;;;;;;5002643;28;20049;-71
2022/08/09 08:25:54;;;;;;;3.78;2.55;;;21.80;99.90;;;;;;5000980;28;20855;-71
2022/08/09 08:28:25;;;;;;;4.88;2.78;;;22.00;99.90;;;;;;5007736;28;20034;-71
2022/08/09 08:30:57;;;;;;;4.32;2.90;;;22.10;99.90;;;;;;5008428;28;20048;-70
2022/08/09 08:33:29;;;;;;;2.85;2.50;;;22.30;99.90;;;;;;5002281;28;20491;-70
2022/08/09 08:36:01;;;;;;;4.45;2.60;;;22.30;99.90;;;;;;5005046;28;20058;-70
2022/08/09 08:38:32;;;;;;;7.68;3.70;;;22.40;99.90;;;;;;5022532;28;20053;-70
2022/08/09 08:41:04;;;;;;;4.75;2.55;;;22.50;99.90;;;;;;5002677;28;20048;-70
2022/08/09 08:43:37;;;;;;;4.63;3.17;;;22.70;99.90;;;;;;4995320;28;20540;-70
2022/08/09 08:46:13;;;;;;;5.68;2.55;;;22.70;99.90;;;;;;5004983;28;20037;-70
2022/08/09 08:48:46;;;;;;;4.32;2.35;;;22.90;99.90;;;;;;4999468;28;20061;-71
2022/08/09 08:51:19;;;;;;;3.60;3.03;;;23.00;99.90;;;;;;5002124;28;20487;-70
2022/08/09 08:53:51;;;;;;;5.53;2.10;;;23.10;99.90;;;;;;5005452;28;20100;-70
2022/08/09 08:56:23;;;;;;;3.37;2.33;;;23.20;99.90;;;;;;5003953;28;20532;-70
2022/08/09 08:58:55;;;;;;;5.77;2.20;;;23.30;99.90;;;;;;5007935;28;20284;-70
2022/08/09 09:01:27;;;;;;;6.05;2.50;;;23.40;99.90;;;;;;4998642;28;20048;-70
2022/08/09 09:04:00;;;;;;;2.92;2.38;;;23.50;98.80;;;;;;4999870;28;20092;-70
2022/08/09 09:06:34;;;;;;;2.33;2.13;;;23.60;98.20;;;;;;5002239;28;20038;-70
2022/08/09 09:09:06;;;;;;;2.50;2.20;;;23.60;98.50;;;;;;5000345;28;20030;-70
2022/08/09 09:11:40;;;;;;;11.40;2.97;;;23.70;98.80;;;;;;5004980;28;20048;-70
2022/08/09 09:14:16;;;;;;;2.63;2.28;;;23.80;97.50;;;;;;5008002;28;20496;-71
2022/08/09 09:16:48;;;;;;;4.45;2.38;;;24.00;97.50;;;;;;5006547;28;20365;-70
2022/08/09 09:19:20;;;;;;;2.85;2.55;;;24.00;97.50;;;;;;5002759;28;20066;-70
2022/08/09 09:22:12;;;;;;;3.83;2.53;;;24.10;96.90;;;;;;5000715;28;20049;-70
2022/08/09 09:24:49;;;;;;;2.50;2.30;;;24.10;95.70;;;;;;5007740;28;20061;-71
2022/08/09 09:27:26;;;;;;;2.85;2.40;;;24.20;96.10;;;;;;4996419;28;20046;-70
2022/08/09 09:30:09;;;;;;;4.22;2.20;;;24.30;96.10;;;;;;4996410;28;20069;-70
2022/08/09 09:32:41;;;;;;;4.07;2.13;;;24.40;95.40;;;;;;5001701;28;20041;-70
2022/08/09 09:35:14;;;;;;;2.30;2.10;;;24.40;94.10;;;;;;5002669;28;20522;-70
2022/08/09 09:37:46;;;;;;;5.53;2.70;;;24.40;95.30;;;;;;5002703;28;20447;-70
2022/08/09 09:40:17;;;;;;;3.38;2.75;;;24.50;95.70;;;;;;4999344;28;20124;-70
2022/08/09 09:42:56;;;;;;;5.82;3.08;;;24.60;95.00;;;;;;4992727;28;20046;-70
2022/08/09 09:45:28;;;;;;;5.10;2.40;;;24.70;94.50;;;;;;5001040;28;20046;-70
2022/08/09 09:48:02;;;;;;;4.10;2.83;;;24.70;93.60;;;;;;5003777;28;20201;-70
2022/08/09 09:50:45;;;;;;;2.67;2.38;;;24.70;93.90;;;;;;5001612;28;20051;-70
2022/08/09 09:53:20;;;;;;;3.47;3.15;;;24.70;93.70;;;;;;5000208;28;20125;-70
2022/08/09 09:55:54;;;;;;;2.60;2.05;;;24.80;94.00;;;;;;4998841;28;20049;-70
2022/08/09 09:58:44;;;;;;;2.35;1.83;;;24.80;92.10;;;;;;5008320;28;20034;-70
2022/08/09 10:01:18;;;;;;;3.50;2.28;;;25.00;91.60;;;;;;5005368;28;20042;-70
2022/08/09 10:03:52;;;;;;;3.17;2.38;;;25.10;91.30;;;;;;4994874;28;20593;-70
2022/08/09 10:06:26;;;;;;;3.83;2.00;;;25.20;90.50;;;;;;5003941;28;20037;-69
2022/08/09 10:09:00;;;;;;;2.10;1.70;;;25.30;90.70;;;;;;4997677;28;20046;-70
2022/08/09 10:11:29;;;;;;;2.55;1.85;;;25.30;90.00;;;;;;4996973;28;20064;-70
2022/08/09 10:14:02;;;;;;;4.95;1.90;;;25.50;90.00;;;;;;5000943;28;20056;-70
2022/08/09 10:16:36;;;;;;;12.00;2.58;;;25.60;85.20;;;;;;4998710;28;20073;-70
2022/08/09 10:19:08;;;;;;;4.95;1.60;;;25.70;84.30;;;;;;5003136;28;20065;-70
2022/08/09 10:21:48;;;;;;;4.63;1.77;;;25.80;84.20;;;;;;4999034;28;20061;-70
2022/08/09 10:24:20;;;;;;;3.17;1.70;;;25.90;83.40;;;;;;4994519;28;20316;-70
2022/08/09 10:26:55;;;;;;;1.58;1.38;;;25.90;79.10;;;;;;5001097;28;20033;-70
2022/08/09 10:29:27;;;;;;;2.28;1.50;;;25.90;79.70;;;;;;4998483;28;20034;-70
2022/08/09 10:31:58;;;;;;;2.97;1.73;;;26.00;81.90;;;;;;5001529;28;20042;-70
2022/08/09 10:34:31;;;;;;;2.72;1.55;;;26.10;78.90;;;;;;5000213;28;20034;-70
2022/08/09 10:37:03;;;;;;;2.72;1.65;;;26.20;77.60;;;;;;5004401;28;20423;-70
2022/08/09 10:39:35;;;;;;;2.38;1.88;;;26.30;80.40;;;;;;5005550;28;20038;-70
2022/08/09 10:42:07;;;;;;;2.90;1.80;;;26.40;79.30;;;;;;4998292;28;20496;-70
2022/08/09 10:44:39;;;;;;;4.07;2.58;;;26.40;77.70;;;;;;4999786;28;20045;-70
2022/08/09 10:47:27;;;;;;;5.00;1.90;;;26.50;79.40;;;;;;5012441;28;20116;-70
2022/08/09 10:50:17;;;;;;;5.40;2.13;;;26.50;79.80;;;;;;4997150;28;20405;-70
2022/08/09 10:53:17;;;;;;;2.17;1.55;;;26.60;76.70;;;;;;4998762;28;20124;-70
2022/08/09 10:55:49;;;;;;;1.90;1.58;;;26.70;75.20;;;;;;5001594;28;20050;-70
2022/08/09 10:58:33;;;;;;;2.88;1.98;;;26.70;75.60;;;;;;5004757;28;20049;-70
2022/08/09 11:01:30;;;;;;;5.13;2.28;;;26.80;76.90;;;;;;5005211;28;20034;-70
2022/08/09 11:04:08;;;;;;;3.83;2.10;;;26.90;76.70;;;;;;5008219;28;20046;-70
2022/08/09 11:06:41;;;;;;;3.20;1.60;;;26.90;75.30;;;;;;5003964;28;20046;-70
2022/08/09 11:09:17;;;;;;;2.90;1.60;;;26.90;73.80;;;;;;4999486;28;20055;-70
2022/08/09 11:11:58;;;;;;;4.00;1.70;;;26.90;73.00;;;;;;5007673;28;20519;-70
2022/08/09 11:14:34;;;;;;;2.00;1.60;;;26.90;73.60;;;;;;5004319;28;20057;-70
2022/08/09 11:17:12;;;;;;;2.47;1.70;;;27.00;73.10;;;;;;5007442;28;20056;-70
2022/08/09 11:19:55;;;;;;;2.03;1.70;;;27.10;73.70;;;;;;5007810;28;20400;-70
2022/08/09 11:22:59;;;;;;;1.77;1.60;;;27.20;71.80;;;;;;5011936;28;20052;-70
2022/08/09 11:25:31;;;;;;;4.05;1.70;;;27.20;71.40;;;;;;4956512;28;21371;-70
2022/08/09 11:28:38;;;;;;;1.50;1.40;;;27.30;71.10;;;;;;5001657;28;20052;-69
2022/08/09 11:31:43;;;;;;;1.73;1.55;;;27.40;70.30;;;;;;4999887;23;20514;-72
2022/08/09 11:34:21;;;;;;;1.98;1.55;;;27.40;69.60;;;;;;5043340;28;20053;-72
2022/08/09 11:36:54;;;;;;;4.30;1.70;;;27.40;65.20;;;;;;5028735;28;20037;-72
2022/08/09 11:39:26;;;;;;;1.77;1.58;;;27.50;65.70;;;;;;5040540;28;20045;-72
2022/08/09 11:42:06;;;;;;;2.67;1.70;;;27.60;67.40;;;;;;5030160;28;20049;-73
2022/08/09 11:44:47;;;;;;;1.85;1.40;;;27.60;67.70;;;;;;5030530;28;20044;-74
2022/08/09 11:47:19;;;;;;;3.72;1.63;;;27.80;68.30;;;;;;5029604;28;20379;-72
2022/08/09 11:50:03;;;;;;;2.10;1.85;;;27.80;67.20;;;;;;5029168;28;20072;-72
2022/08/09 11:52:57;;;;;;;3.47;1.58;;;27.80;66.90;;;;;;5026305;28;20045;-71
2022/08/09 11:55:40;;;;;;;2.13;1.38;;;27.70;66.30;;;;;;5022439;28;20076;-72
2022/08/09 11:58:15;;;;;;;;;;;27.70;66.70;;;;;;5037227;28;20038;-72
2022/08/09 12:00:52;;;;;;;2.40;1.50;;;27.80;65.70;;;;;;5021158;28;20012;-72
2022/08/09 12:03:26;;;;;;;3.55;1.60;;;27.70;63.00;;;;;;5030342;28;20411;-72
2022/08/09 12:06:00;;;;;;;3.97;1.58;;;27.60;64.10;;;;;;5029407;28;20038;-72
2022/08/09 12:08:32;;;;;;;3.53;1.40;;;27.80;65.70;;;;;;5024691;28;20145;-75
2022/08/09 12:11:04;;;;;;;2.70;1.48;;;27.70;65.00;;;;;;5028009;28;20049;-72
2022/08/09 12:13:41;;;;;;;4.32;1.88;;;27.70;62.30;;;;;;5032089;28;20041;-72
2022/08/09 12:16:17;;;;;;;2.65;1.33;;;27.90;62.80;;;;;;5023249;28;20049;-72
2022/08/09 12:18:51;;;;;;;3.95;1.90;;;27.90;61.90;;;;;;5034314;28;20040;-72
2022/08/09 12:21:34;;;;;;;2.03;1.60;;;28.00;62.50;;;;;;5028594;28;20089;-72
2022/08/09 12:24:08;;;;;;;1.92;1.50;;;28.10;62.30;;;;;;5008004;28;20053;-72
2022/08/09 12:26:42;;;;;;;3.03;1.80;;;28.00;63.90;;;;;;5029531;28;20084;-74
2022/08/09 12:29:19;;;;;;;3.17;1.23;;;28.10;62.80;;;;;;5030524;28;20503;-73
2022/08/09 12:32:04;;;;;;;2.92;1.40;;;28.20;61.40;;;;;;5026418;28;20045;-71
2022/08/09 12:38:18;;;;;;;3.30;1.60;;;28.20;59.30;;;;;;5021313;28;20132;-73
2022/08/09 12:40:51;;;;;;;4.47;1.65;;;28.30;60.80;;;;;;5025986;28;20029;-73
2022/08/09 12:43:27;;;;;;;;;;;28.40;60.20;;;;;;5026757;28;20052;-74
2022/08/09 12:46:08;;;;;;;4.95;1.58;;;28.40;58.60;;;;;;5026983;28;19924;-74
2022/08/09 12:48:39;;;;;;;2.67;1.58;;;28.50;60.60;;;;;;5027897;28;20096;-72
2022/08/09 12:51:06;;;;;;;2.22;1.50;;;28.60;60.70;;;;;;5027820;28;20052;-72
2022/08/09 12:53:39;;;;;;;4.05;1.60;;;28.60;59.30;;;;;;5031612;28;20056;-72
2022/08/09 12:56:18;;;;;;;3.13;1.50;;;28.60;58.40;;;;;;5029379;28;20045;-73
2022/08/09 12:59:11;;;;;;;3.17;1.50;;;28.70;58.30;;;;;;5011427;28;20034;-71
2022/08/09 13:01:58;;;;;;;1.50;1.40;;;28.70;58.40;;;;;;5022508;28;20038;-72
2022/08/09 13:04:31;;;;;;;2.53;1.90;;;28.70;58.30;;;;;;5028653;28;20037;-72
2022/08/09 13:07:15;;;;;;;3.08;1.23;;;28.80;59.30;;;;;;5029091;28;20502;-72
2022/08/09 13:09:59;;;;;;;2.45;1.60;;;28.80;57.80;;;;;;5008604;28;20046;-71
2022/08/09 13:12:31;;;;;;;2.78;1.60;;;28.80;58.40;;;;;;5026864;28;20045;-71
2022/08/09 13:15:07;;;;;;;3.47;1.92;;;28.90;59.30;;;;;;5019900;28;20056;-72
2022/08/09 13:17:39;;;;;;;3.72;1.70;;;29.00;58.80;;;;;;5021526;28;20045;-71
2022/08/09 13:20:11;;;;;;;3.38;1.60;;;29.00;58.20;;;;;;5017344;28;20117;-74
2022/08/09 13:22:48;;;;;;;4.20;1.48;;;29.00;59.00;;;;;;5025380;28;20042;-72
2022/08/09 13:25:19;;;;;;;2.97;1.60;;;29.20;58.30;;;;;;5019431;28;20037;-72
2022/08/09 13:27:51;;;;;;;3.72;1.85;;;29.20;57.80;;;;;;5029693;28;20503;-73